Time;durP1;ratioP1;P1;durP2;ratioP2;P2;SDS_P1;SDS_P2;PMS_P1;PMS_P2;Temp;Humidity;BMP_temperature;BMP_pressure;BME280_temperature;BME280_humidity;BME280_pressure;Samples;Min_cycle;Max_cycle;Signal;HPM_P1;HPM_P2
2022/06/19 00:00:39;;;;;;;14.40;3.90;;;;;;;;;;5018965;28;20033;-74
2022/06/19 00:03:09;;;;;;;15.43;3.72;;;;;;;;;;5019873;28;20087;-75
2022/06/19 00:05:35;;;;;;;16.05;4.28;;;;;;;;;;5020381;28;20103;-74
2022/06/19 00:08:00;;;;;;;10.73;3.47;;;;;;;;;;5020818;28;20026;-75
2022/06/19 00:10:25;;;;;;;18.60;3.92;;;;;;;;;;5020632;28;20029;-74
2022/06/19 00:12:51;;;;;;;14.63;3.70;;;;;;;;;;5018233;28;20403;-74
2022/06/19 00:15:16;;;;;;;16.27;3.83;;;;;;;;;;5019868;28;20068;-75
2022/06/19 00:17:42;;;;;;;14.45;3.80;;;;;;;;;;5019904;28;20287;-74
2022/06/19 00:20:08;;;;;;;14.10;3.83;;;;;;;;;;5018678;28;20029;-74
2022/06/19 00:22:33;;;;;;;15.32;4.05;;;;;;;;;;5019721;28;20034;-75
2022/06/19 00:24:59;;;;;;;12.93;3.63;;;;;;;;;;5019869;28;20041;-75
2022/06/19 00:27:25;;;;;;;17.67;3.72;;;;;;;;;;5018665;28;20113;-74
2022/06/19 00:29:50;;;;;;;18.95;4.45;;;;;;;;;;5015485;28;20437;-70
2022/06/19 00:32:16;;;;;;;16.38;4.32;;;;;;;;;;5013848;28;20029;-70
2022/06/19 00:34:41;;;;;;;12.00;3.78;;;;;;;;;;5013852;28;20025;-69
2022/06/19 00:37:06;;;;;;;15.73;4.00;;;;;;;;;;5013757;28;20026;-70
2022/06/19 00:39:32;;;;;;;14.70;3.50;;;;;;;;;;5013637;28;20633;-71
2022/06/19 00:41:59;;;;;;;15.52;3.80;;;;;;;;;;5013918;28;20267;-70
2022/06/19 00:44:25;;;;;;;12.38;4.00;;;;;;;;;;5013513;28;20018;-69
2022/06/19 00:47:08;;;;;;;16.20;4.00;;;;;;;;;;5013780;28;20053;-69
2022/06/19 00:49:43;;;;;;;19.63;3.58;;;;;;;;;;5013580;28;20026;-69
2022/06/19 00:52:16;;;;;;;15.88;3.70;;;;;;;;;;5013749;28;20040;-70
2022/06/19 00:54:45;;;;;;;10.65;3.67;;;;;;;;;;5012157;28;20045;-70
2022/06/19 00:57:12;;;;;;;18.77;4.07;;;;;;;;;;5013393;28;20038;-69
2022/06/19 00:59:42;;;;;;;15.52;3.83;;;;;;;;;;5013543;28;20037;-70
2022/06/19 01:02:07;;;;;;;10.80;3.40;;;;;;;;;;5013704;28;20029;-70
2022/06/19 01:04:47;;;;;;;16.38;3.80;;;;;;;;;;5013260;28;20061;-69
2022/06/19 01:07:13;;;;;;;14.35;3.38;;;;;;;;;;5012275;28;20022;-69
2022/06/19 01:09:38;;;;;;;13.88;3.30;;;;;;;;;;5013320;28;20098;-70
2022/06/19 01:12:04;;;;;;;13.23;3.55;;;;;;;;;;5013489;28;20022;-69
2022/06/19 01:14:31;;;;;;;14.48;3.83;;;;;;;;;;5013173;28;20096;-70
2022/06/19 01:16:58;;;;;;;17.23;3.78;;;;;;;;;;5013649;28;20022;-70
2022/06/19 01:19:27;;;;;;;11.93;3.53;;;;;;;;;;5013235;28;20112;-69
2022/06/19 01:22:00;;;;;;;13.63;3.60;;;;;;;;;;5013449;28;20025;-69
2022/06/19 01:24:55;;;;;;;16.10;3.65;;;;;;;;;;5013234;28;20026;-69
2022/06/19 01:30:23;;;;;;;11.82;3.60;;;;;;;;;;4952823;29;20028;-69
2022/06/19 01:32:50;;;;;;;13.68;3.90;;;;;;;;;;5000710;28;20034;-70
2022/06/19 01:35:21;;;;;;;9.50;3.65;;;;;;;;;;5013088;28;20026;-70
2022/06/19 01:37:48;;;;;;;13.45;3.50;;;;;;;;;;5013551;28;20376;-70
2022/06/19 01:40:20;;;;;;;16.90;4.07;;;;;;;;;;5012951;28;20022;-69
2022/06/19 01:42:45;;;;;;;16.77;3.50;;;;;;;;;;5013337;28;20510;-69
2022/06/19 01:45:11;;;;;;;19.00;4.03;;;;;;;;;;5012928;28;20034;-70
2022/06/19 01:47:38;;;;;;;12.88;3.30;;;;;;;;;;5013081;28;20034;-69
2022/06/19 01:50:07;;;;;;;8.55;3.05;;;;;;;;;;5013742;28;20039;-74
2022/06/19 01:52:33;;;;;;;14.32;3.92;;;;;;;;;;5016707;28;20467;-74
2022/06/19 01:55:05;;;;;;;13.68;3.47;;;;;;;;;;5015731;28;20076;-74
2022/06/19 01:57:34;;;;;;;21.00;3.47;;;;;;;;;;5017104;28;20025;-74
2022/06/19 01:59:59;;;;;;;12.13;3.53;;;;;;;;;;5017560;28;20034;-73
2022/06/19 02:02:24;;;;;;;8.82;3.50;;;;;;;;;;5017461;28;20053;-74
2022/06/19 02:04:51;;;;;;;12.60;3.55;;;;;;;;;;5017586;28;20045;-74
2022/06/19 02:07:22;;;;;;;14.38;4.03;;;;;;;;;;5016194;28;20022;-74
2022/06/19 02:09:51;;;;;;;12.55;3.88;;;;;;;;;;5017043;28;20026;-73
2022/06/19 02:12:16;;;;;;;26.10;4.00;;;;;;;;;;5016432;28;20026;-74
2022/06/19 02:14:42;;;;;;;18.63;3.85;;;;;;;;;;5017589;28;20028;-74
2022/06/19 02:17:14;;;;;;;17.67;3.60;;;;;;;;;;5017350;28;20022;-73
2022/06/19 02:19:40;;;;;;;12.52;3.63;;;;;;;;;;5020597;28;20439;-74
2022/06/19 02:22:12;;;;;;;18.65;3.60;;;;;;;;;;5018897;28;20463;-75
2022/06/19 02:24:38;;;;;;;16.67;3.90;;;;;;;;;;5019996;28;20045;-74
2022/06/19 02:27:05;;;;;;;14.48;3.78;;;;;;;;;;5020202;28;20025;-74
2022/06/19 02:29:31;;;;;;;15.45;3.80;;;;;;;;;;5018734;28;20494;-75
2022/06/19 02:31:56;;;;;;;14.88;3.63;;;;;;;;;;5020055;28;20040;-74
2022/06/19 02:34:28;;;;;;;12.00;3.65;;;;;;;;;;5019955;28;20021;-74
2022/06/19 02:36:58;;;;;;;16.17;3.25;;;;;;;;;;5018730;28;20155;-73
2022/06/19 02:39:31;;;;;;;16.23;3.85;;;;;;;;;;5019705;28;20037;-75
2022/06/19 02:42:09;;;;;;;14.13;4.03;;;;;;;;;;5020350;28;20033;-74
2022/06/19 02:44:40;;;;;;;10.73;3.67;;;;;;;;;;5020362;28;20042;-74
2022/06/19 02:47:08;;;;;;;15.55;3.50;;;;;;;;;;5020338;28;20443;-74
2022/06/19 02:49:34;;;;;;;15.45;4.00;;;;;;;;;;5020099;28;20077;-72
2022/06/19 02:52:00;;;;;;;15.20;4.38;;;;;;;;;;5021010;28;20065;-74
2022/06/19 02:54:26;;;;;;;13.73;3.85;;;;;;;;;;5020315;28;20026;-72
2022/06/19 02:56:51;;;;;;;10.00;3.63;;;;;;;;;;5020592;28;20029;-74
2022/06/19 02:59:16;;;;;;;12.10;3.80;;;;;;;;;;5018618;28;20022;-75
2022/06/19 03:01:41;;;;;;;20.90;3.30;;;;;;;;;;5020186;28;20081;-74
2022/06/19 03:04:17;;;;;;;16.00;3.77;;;;;;;;;;5018968;28;20279;-74
2022/06/19 03:06:42;;;;;;;14.45;3.35;;;;;;;;;;5020066;28;20389;-74
2022/06/19 03:09:07;;;;;;;11.68;3.40;;;;;;;;;;5018666;28;20471;-73
2022/06/19 03:11:32;;;;;;;10.93;3.30;;;;;;;;;;5019904;28;20029;-73
2022/06/19 03:13:58;;;;;;;13.80;3.37;;;;;;;;;;5018594;28;20267;-74
2022/06/19 03:16:23;;;;;;;10.80;3.40;;;;;;;;;;5019804;28;20263;-73
2022/06/19 03:18:49;;;;;;;13.60;3.30;;;;;;;;;;5019390;28;20259;-73
2022/06/19 03:21:14;;;;;;;12.02;3.20;;;;;;;;;;5018113;28;20251;-75
2022/06/19 03:23:39;;;;;;;9.90;3.47;;;;;;;;;;5019196;28;20025;-73
2022/06/19 03:26:05;;;;;;;11.77;3.60;;;;;;;;;;5019099;28;20263;-73
2022/06/19 03:28:30;;;;;;;13.93;3.10;;;;;;;;;;5019108;28;20329;-74
2022/06/19 03:30:55;;;;;;;12.33;3.17;;;;;;;;;;5018614;28;20255;-73
2022/06/19 03:33:21;;;;;;;10.18;3.10;;;;;;;;;;5019146;28;20394;-74
2022/06/19 03:35:46;;;;;;;11.80;3.03;;;;;;;;;;5018918;28;20026;-75
2022/06/19 03:38:11;;;;;;;9.77;3.50;;;;;;;;;;5019337;28;20468;-73
2022/06/19 03:40:36;;;;;;;14.27;3.43;;;;;;;;;;5018585;28;20036;-74
2022/06/19 03:43:02;;;;;;;7.83;2.93;;;;;;;;;;5019161;28;20267;-73
2022/06/19 03:45:27;;;;;;;14.93;3.60;;;;;;;;;;5017729;28;20262;-73
2022/06/19 03:47:52;;;;;;;12.27;3.57;;;;;;;;;;5017964;28;20366;-74
2022/06/19 03:50:18;;;;;;;15.10;3.33;;;;;;;;;;5016703;28;20294;-73
2022/06/19 03:52:44;;;;;;;11.40;3.20;;;;;;;;;;5017589;28;20278;-75
2022/06/19 03:55:10;;;;;;;12.45;2.92;;;;;;;;;;5017234;28;20041;-72
2022/06/19 03:57:35;;;;;;;11.15;2.70;;;;;;;;;;5017728;28;20361;-74
2022/06/19 04:00:00;;;;;;;11.55;2.85;;;;;;;;;;5017985;28;20144;-73
2022/06/19 04:02:26;;;;;;;11.57;3.30;;;;;;;;;;5016738;28;20026;-74
2022/06/19 04:04:51;;;;;;;16.80;3.50;;;;;;;;;;5017561;28;20752;-74
2022/06/19 04:07:19;;;;;;;17.02;3.50;;;;;;;;;;5016715;28;20033;-73
2022/06/19 04:09:44;;;;;;;9.70;2.97;;;;;;;;;;5016709;28;20080;-73
2022/06/19 04:12:10;;;;;;;15.38;3.50;;;;;;;;;;5016398;28;20038;-74
2022/06/19 04:14:36;;;;;;;9.23;3.10;;;;;;;;;;5016263;28;20372;-74
2022/06/19 04:17:03;;;;;;;13.88;3.03;;;;;;;;;;5015948;28;20073;-74
2022/06/19 04:19:29;;;;;;;9.02;3.10;;;;;;;;;;5015009;28;20037;-74
2022/06/19 04:21:54;;;;;;;15.38;3.22;;;;;;;;;;5015982;28;20022;-74
2022/06/19 04:24:20;;;;;;;9.85;3.33;;;;;;;;;;5015264;28;20025;-74
2022/06/19 04:26:46;;;;;;;13.00;3.00;;;;;;;;;;5017613;28;20024;-74
2022/06/19 04:29:15;;;;;;;14.63;3.40;;;;;;;;;;5017974;28;20026;-74
2022/06/19 04:31:41;;;;;;;11.68;3.15;;;;;;;;;;5018079;28;20491;-74
2022/06/19 04:34:06;;;;;;;10.20;3.15;;;;;;;;;;5016458;28;20057;-74
2022/06/19 04:36:31;;;;;;;13.32;3.13;;;;;;;;;;5016460;28;20109;-75
2022/06/19 04:38:58;;;;;;;12.13;2.83;;;;;;;;;;5016425;28;20026;-73
2022/06/19 04:41:31;;;;;;;14.20;3.33;;;;;;;;;;5016157;28;20479;-74
2022/06/19 04:43:57;;;;;;;11.70;3.03;;;;;;;;;;5017236;28;20414;-74
2022/06/19 04:46:23;;;;;;;18.58;3.42;;;;;;;;;;5017248;28;20113;-74
2022/06/19 04:48:49;;;;;;;10.20;3.00;;;;;;;;;;5018075;28;20025;-73
2022/06/19 04:51:15;;;;;;;16.73;3.55;;;;;;;;;;5016573;28;20022;-74
2022/06/19 04:53:40;;;;;;;13.38;3.47;;;;;;;;;;5017686;28;20026;-73
2022/06/19 04:56:07;;;;;;;9.05;3.15;;;;;;;;;;5017277;28;20033;-74
2022/06/19 04:58:33;;;;;;;9.38;3.40;;;;;;;;;;5017696;28;20057;-74
2022/06/19 05:01:01;;;;;;;13.27;3.63;;;;;;;;;;5016681;28;20084;-74
2022/06/19 05:03:27;;;;;;;11.52;3.08;;;;;;;;;;5015859;28;20030;-74
2022/06/19 05:05:53;;;;;;;13.05;3.47;;;;;;;;;;5018058;28;20391;-74
2022/06/19 05:08:19;;;;;;;17.75;3.55;;;;;;;;;;5017052;28;20076;-74
2022/06/19 05:10:44;;;;;;;12.20;3.53;;;;;;;;;;5016049;28;20471;-74
2022/06/19 05:13:21;;;;;;;9.63;3.50;;;;;;;;;;5017635;28;20037;-74
2022/06/19 05:15:47;;;;;;;9.77;3.13;;;;;;;;;;5018393;28;20030;-74
2022/06/19 05:18:14;;;;;;;10.00;3.53;;;;;;;;;;5017723;28;20014;-74
2022/06/19 05:20:40;;;;;;;17.38;3.72;;;;;;;;;;5017721;28;20052;-74
2022/06/19 05:23:07;;;;;;;12.10;3.72;;;;;;;;;;5017989;28;20539;-73
2022/06/19 05:25:32;;;;;;;6.20;2.88;;;;;;;;;;5017431;28;20025;-74
2022/06/19 05:27:58;;;;;;;8.02;3.58;;;;;;;;;;5017534;28;20033;-73
2022/06/19 05:30:23;;;;;;;9.43;3.60;;;;;;;;;;5017291;28;20106;-74
2022/06/19 05:32:48;;;;;;;9.25;3.38;;;;;;;;;;5017277;28;20104;-75
2022/06/19 05:35:14;;;;;;;8.93;3.40;;;;;;;;;;5017303;28;20472;-75
2022/06/19 05:37:39;;;;;;;7.03;3.30;;;;;;;;;;5017276;28;20256;-74
2022/06/19 05:40:05;;;;;;;8.45;3.22;;;;;;;;;;5017315;28;20338;-74
2022/06/19 05:42:30;;;;;;;11.15;3.42;;;;;;;;;;5016432;28;20032;-74
2022/06/19 05:44:55;;;;;;;16.07;3.50;;;;;;;;;;5016840;28;20101;-74
2022/06/19 05:47:20;;;;;;;8.60;3.23;;;;;;;;;;5016655;28;20302;-75
2022/06/19 05:49:46;;;;;;;5.97;3.20;;;;;;;;;;5016480;28;20255;-74
2022/06/19 05:52:17;;;;;;;8.18;3.10;;;;;;;;;;5016274;28;20056;-73
2022/06/19 05:54:43;;;;;;;7.53;2.83;;;;;;;;;;5020670;28;20037;-75
2022/06/19 05:57:08;;;;;;;12.48;3.08;;;;;;;;;;5019904;28;20053;-74
2022/06/19 05:59:34;;;;;;;9.18;3.20;;;;;;;;;;5019598;28;20029;-73
2022/06/19 06:01:59;;;;;;;10.47;2.83;;;;;;;;;;5018667;28;20057;-73
2022/06/19 06:04:24;;;;;;;11.30;3.00;;;;;;;;;;5019632;28;20038;-74
2022/06/19 06:06:49;;;;;;;10.57;3.10;;;;;;;;;;5020430;28;20282;-74
2022/06/19 06:09:15;;;;;;;9.53;3.20;;;;;;;;;;5019217;28;20532;-74
2022/06/19 06:11:41;;;;;;;9.30;3.17;;;;;;;;;;5017777;28;20259;-74
2022/06/19 06:14:06;;;;;;;9.20;3.30;;;;;;;;;;5017896;28;20383;-74
2022/06/19 06:16:31;;;;;;;6.73;2.90;;;;;;;;;;5017558;28;20025;-73
2022/06/19 06:18:56;;;;;;;12.43;2.87;;;;;;;;;;5018030;28;20263;-75
2022/06/19 06:21:24;;;;;;;9.70;2.97;;;;;;;;;;5016845;28;20252;-73
2022/06/19 06:23:50;;;;;;;17.10;3.55;;;;;;;;;;5017696;28;20271;-74
2022/06/19 06:26:18;;;;;;;7.75;2.83;;;;;;;;;;5017634;28;20029;-73
2022/06/19 06:28:46;;;;;;;8.10;2.95;;;;;;;;;;5018733;28;20057;-74
2022/06/19 06:31:11;;;;;;;10.15;3.10;;;;;;;;;;5018092;28;20022;-73
2022/06/19 06:33:37;;;;;;;7.93;2.50;;;;;;;;;;5017370;28;20033;-74
2022/06/19 06:36:03;;;;;;;11.45;2.97;;;;;;;;;;5017856;28;20109;-75
2022/06/19 06:38:29;;;;;;;6.35;2.90;;;;;;;;;;5016424;28;20356;-74
2022/06/19 06:40:55;;;;;;;10.27;3.00;;;;;;;;;;5017212;28;20029;-74
2022/06/19 06:43:21;;;;;;;9.60;2.75;;;;;;;;;;5018209;28;20033;-75
2022/06/19 06:45:48;;;;;;;10.02;2.60;;;;;;;;;;5017824;28;20029;-74
2022/06/19 06:48:13;;;;;;;9.65;2.90;;;;;;;;;;5018031;28;20076;-73
2022/06/19 06:50:40;;;;;;;7.60;2.67;;;;;;;;;;5018111;28;20434;-74
2022/06/19 06:53:06;;;;;;;11.75;2.95;;;;;;;;;;5018259;28;20022;-73
2022/06/19 06:55:31;;;;;;;9.68;2.80;;;;;;;;;;5018295;28;20028;-73
2022/06/19 06:57:56;;;;;;;12.57;2.60;;;;;;;;;;5018578;28;20120;-74
2022/06/19 07:00:23;;;;;;;9.17;2.73;;;;;;;;;;5017803;28;20263;-74
2022/06/19 07:02:49;;;;;;;6.43;2.58;;;;;;;;;;5017658;28;20259;-73
2022/06/19 07:05:15;;;;;;;12.10;2.78;;;;;;;;;;5017551;28;20077;-74
2022/06/19 07:07:41;;;;;;;8.38;2.70;;;;;;;;;;5017629;28;20086;-75
2022/06/19 07:10:07;;;;;;;11.30;2.97;;;;;;;;;;5018454;28;20042;-74
2022/06/19 07:12:32;;;;;;;9.15;2.45;;;;;;;;;;5017995;28;20152;-74
2022/06/19 07:14:58;;;;;;;7.07;2.50;;;;;;;;;;5018163;28;20030;-74
2022/06/19 07:17:23;;;;;;;11.68;2.83;;;;;;;;;;5017738;28;20255;-73
2022/06/19 07:19:48;;;;;;;12.38;3.00;;;;;;;;;;5017874;28;20037;-75
2022/06/19 07:22:18;;;;;;;7.72;2.40;;;;;;;;;;5017094;28;20026;-74
2022/06/19 07:24:44;;;;;;;18.50;2.63;;;;;;;;;;5016164;28;20021;-73
2022/06/19 07:27:10;;;;;;;10.30;2.20;;;;;;;;;;5017140;28;20085;-73
2022/06/19 07:29:45;;;;;;;11.63;2.50;;;;;;;;;;5017100;28;20057;-75
2022/06/19 07:32:12;;;;;;;9.80;2.50;;;;;;;;;;5018527;28;20030;-74
2022/06/19 07:34:38;;;;;;;12.25;2.65;;;;;;;;;;5017026;28;20509;-74
2022/06/19 07:37:04;;;;;;;9.85;2.25;;;;;;;;;;5017371;28;20052;-75
2022/06/19 07:39:32;;;;;;;19.45;2.40;;;;;;;;;;5017398;28;20104;-74
2022/06/19 07:41:59;;;;;;;5.45;2.10;;;;;;;;;;5016941;28;20439;-73
2022/06/19 07:44:24;;;;;;;13.35;2.33;;;;;;;;;;5016819;28;20025;-73
2022/06/19 07:52:17;;;;;;;13.80;2.25;;;;;;;;;;5018418;28;20121;-75
2022/06/19 07:54:42;;;;;;;10.33;2.13;;;;;;;;;;5018202;28;20061;-74
2022/06/19 07:57:08;;;;;;;16.10;2.70;;;;;;;;;;5017679;28;20037;-74
2022/06/19 07:59:33;;;;;;;10.37;2.60;;;;;;;;;;5017307;28;20031;-75
2022/06/19 08:01:58;;;;;;;11.97;2.47;;;;;;;;;;5017541;28;20033;-75
2022/06/19 08:04:23;;;;;;;11.43;2.50;;;;;;;;;;5017043;28;20040;-74
2022/06/19 08:06:49;;;;;;;10.77;2.55;;;;;;;;;;5016717;28;20113;-74
2022/06/19 08:09:14;;;;;;;9.00;2.33;;;;;;;;;;5015627;28;20128;-75
2022/06/19 08:11:39;;;;;;;13.07;2.55;;;;;;;;;;5016545;28;20084;-74
2022/06/19 08:14:05;;;;;;;16.47;2.77;;;;;;;;;;5016610;28;20044;-74
2022/06/19 08:16:30;;;;;;;13.27;2.90;;;;;;;;;;5016927;28;20109;-74
2022/06/19 08:18:55;;;;;;;15.02;2.22;;;;;;;;;;5016162;28;20258;-74
2022/06/19 08:21:20;;;;;;;12.40;2.80;;;;;;;;;;5015911;28;20029;-74
2022/06/19 08:23:46;;;;;;;17.33;2.37;;;;;;;;;;5016000;28;20298;-74
2022/06/19 08:26:11;;;;;;;14.82;2.80;;;;;;;;;;5014588;28;20018;-74
2022/06/19 08:31:20;;;;;;;15.27;2.55;;;;;;;;;;5015679;28;20083;-74
2022/06/19 08:33:45;;;;;;;18.63;2.63;;;;;;;;;;5014456;28;20422;-74
2022/06/19 08:36:11;;;;;;;19.67;2.33;;;;;;;;;;5014000;28;20499;-74
2022/06/19 08:38:47;;;;;;;16.40;2.90;;;;;;;;;;5015251;28;20483;-73
2022/06/19 08:41:39;;;;;;;10.77;2.63;;;;;;;;;;5015013;28;20055;-72
2022/06/19 08:44:22;;;;;;;21.73;3.00;;;;;;;;;;5014185;28;20034;-73
2022/06/19 08:47:20;;;;;;;13.90;2.50;;;;;;;;;;5014951;28;20033;-74
2022/06/19 08:50:10;;;;;;;19.63;2.97;;;;;;;;;;5025917;28;20036;-75
2022/06/19 08:52:54;;;;;;;17.60;2.70;;;;;;;;;;5013039;28;20125;-75
2022/06/19 08:55:32;;;;;;;12.13;2.78;;;;;;;;;;5013534;28;20057;-75
2022/06/19 08:58:04;;;;;;;16.42;2.63;;;;;;;;;;5014020;28;20021;-74
2022/06/19 09:00:40;;;;;;;14.73;3.42;;;;;;;;;;5015162;28;20117;-74
2022/06/19 09:03:17;;;;;;;13.38;3.25;;;;;;;;;;5014768;28;20029;-74
2022/06/19 09:06:13;;;;;;;17.65;2.95;;;;;;;;;;5015190;28;20029;-74
2022/06/19 09:08:59;;;;;;;10.35;2.70;;;;;;;;;;5014582;28;20022;-75
2022/06/19 09:12:02;;;;;;;11.27;2.53;;;;;;;;;;5014980;28;20112;-74
2022/06/19 09:14:56;;;;;;;12.27;2.92;;;;;;;;;;5015103;28;20022;-72
2022/06/19 09:17:36;;;;;;;16.73;2.92;;;;;;;;;;5013498;28;20025;-74
2022/06/19 09:20:08;;;;;;;16.30;3.10;;;;;;;;;;5015735;28;20022;-74
2022/06/19 09:22:55;;;;;;;13.90;2.47;;;;;;;;;;5014864;28;20095;-74
2022/06/19 09:25:33;;;;;;;11.73;3.03;;;;;;;;;;5013464;28;20026;-73
2022/06/19 09:28:09;;;;;;;10.20;2.75;;;;;;;;;;5016276;28;20034;-74
2022/06/19 09:30:42;;;;;;;17.63;2.92;;;;;;;;;;5019941;28;20073;-75
2022/06/19 09:33:39;;;;;;;15.90;2.95;;;;;;;;;;5019421;28;20032;-72
2022/06/19 09:36:07;;;;;;;17.85;2.88;;;;;;;;;;5020267;28;20113;-75
2022/06/19 09:38:48;;;;;;;12.10;2.92;;;;;;;;;;5021915;28;20052;-74
2022/06/19 09:41:20;;;;;;;14.57;2.90;;;;;;;;;;5019865;28;20064;-72
2022/06/19 09:44:03;;;;;;;11.55;2.58;;;;;;;;;;5020298;28;20026;-75
2022/06/19 09:46:58;;;;;;;18.40;3.00;;;;;;;;;;5019999;28;20033;-75
2022/06/19 09:49:31;;;;;;;11.70;3.05;;;;;;;;;;5013880;28;20034;-74
2022/06/19 09:52:05;;;;;;;13.13;2.88;;;;;;;;;;5027644;28;20021;-73
2022/06/19 09:54:59;;;;;;;13.98;2.90;;;;;;;;;;5029499;28;20037;-74
2022/06/19 09:57:30;;;;;;;14.18;3.17;;;;;;;;;;5028918;28;20018;-74
2022/06/19 10:00:04;;;;;;;10.48;2.88;;;;;;;;;;5028591;28;20022;-74
2022/06/19 10:02:44;;;;;;;11.77;2.88;;;;;;;;;;5028598;28;20545;-74
2022/06/19 10:05:47;;;;;;;11.25;2.63;;;;;;;;;;5029179;28;20034;-73
2022/06/19 10:08:36;;;;;;;14.13;3.20;;;;;;;;;;5029476;28;20026;-74
2022/06/19 10:11:06;;;;;;;16.17;2.80;;;;;;;;;;5030095;28;20080;-75
2022/06/19 10:13:53;;;;;;;13.38;3.03;;;;;;;;;;5029136;28;20056;-73
2022/06/19 10:16:45;;;;;;;13.35;2.78;;;;;;;;;;5025791;28;20030;-75
2022/06/19 10:19:14;;;;;;;20.17;3.08;;;;;;;;;;5023318;28;20491;-74
2022/06/19 10:24:42;;;;;;;18.42;3.47;;;;;;;;;;5022675;28;20081;-76
2022/06/19 10:27:34;;;;;;;10.20;3.00;;;;;;;;;;5021916;28;20033;-75
2022/06/19 10:30:22;;;;;;;8.55;2.50;;;;;;;;;;5028203;28;20146;-75
2022/06/19 10:33:22;;;;;;;12.43;3.15;;;;;;;;;;5031803;28;20022;-75
2022/06/19 10:35:57;;;;;;;14.52;2.72;;;;;;;;;;5033150;28;20023;-74
2022/06/19 10:38:48;;;;;;;12.07;2.72;;;;;;;;;;5031520;28;20045;-74
2022/06/19 10:44:34;;;;;;;19.70;3.03;;;;;;;;;;5027188;28;20419;-75
2022/06/19 10:47:16;;;;;;;16.40;2.40;;;;;;;;;;5024335;28;20030;-74
2022/06/19 10:50:18;;;;;;;13.73;3.03;;;;;;;;;;5021994;28;20030;-75
2022/06/19 10:53:11;;;;;;;13.43;3.20;;;;;;;;;;5021865;28;20030;-75
2022/06/19 10:55:39;;;;;;;;;;;;;;;;;;5022650;28;20116;-75
2022/06/19 10:58:14;;;;;;;16.27;2.80;;;;;;;;;;5022604;28;19968;-74
2022/06/19 11:00:39;;;;;;;16.38;2.97;;;;;;;;;;5022658;28;20030;-75
2022/06/19 11:06:55;;;;;;;11.45;2.80;;;;;;;;;;5021479;28;20119;-74
2022/06/19 11:09:37;;;;;;;16.42;3.05;;;;;;;;;;5018044;28;20132;-74
2022/06/19 11:12:20;;;;;;;21.50;3.08;;;;;;;;;;5015369;28;20088;-75
2022/06/19 11:14:55;;;;;;;13.30;3.05;;;;;;;;;;5016702;28;20141;-74
2022/06/19 11:17:39;;;;;;;20.80;3.10;;;;;;;;;;5014655;28;20026;-74
2022/06/19 11:20:24;;;;;;;19.02;2.90;;;;;;;;;;5015335;28;20402;-74
2022/06/19 11:22:57;;;;;;;14.55;2.97;;;;;;;;;;5016524;28;20026;-73
2022/06/19 11:25:26;;;;;;;17.58;2.70;;;;;;;;;;5017934;28;20104;-74
2022/06/19 11:27:59;;;;;;;21.08;2.88;;;;;;;;;;5017831;28;20026;-76
2022/06/19 11:30:35;;;;;;;15.48;2.97;;;;;;;;;;5017471;28;20056;-75
2022/06/19 11:33:04;;;;;;;13.93;2.60;;;;;;;;;;5018512;28;20487;-74
2022/06/19 11:35:38;;;;;;;14.40;2.70;;;;;;;;;;5017434;28;20529;-75
2022/06/19 11:38:03;;;;;;;19.15;2.92;;;;;;;;;;5017665;28;20022;-72
2022/06/19 11:40:35;;;;;;;15.87;2.90;;;;;;;;;;5017722;28;20036;-74
2022/06/19 11:43:04;;;;;;;17.95;2.65;;;;;;;;;;5017914;28;20255;-74
2022/06/19 11:45:35;;;;;;;14.98;2.50;;;;;;;;;;5017445;28;20036;-73
2022/06/19 11:48:12;;;;;;;14.57;3.17;;;;;;;;;;5017403;28;20098;-74
2022/06/19 11:50:50;;;;;;;19.25;2.90;;;;;;;;;;5017158;28;20079;-74
2022/06/19 11:53:27;;;;;;;21.17;3.05;;;;;;;;;;5016530;28;20026;-74
2022/06/19 11:56:13;;;;;;;16.08;2.80;;;;;;;;;;5015927;28;20167;-73
2022/06/19 11:58:41;;;;;;;18.98;3.15;;;;;;;;;;5016059;28;20027;-73
2022/06/19 12:01:10;;;;;;;16.27;3.08;;;;;;;;;;5016443;28;20049;-75
2022/06/19 12:03:46;;;;;;;18.17;3.20;;;;;;;;;;5015633;28;20036;-75
2022/06/19 12:06:13;;;;;;;15.73;3.00;;;;;;;;;;5015399;28;20491;-73
2022/06/19 12:08:54;;;;;;;17.58;3.28;;;;;;;;;;5016826;28;20030;-73
2022/06/19 12:11:37;;;;;;;19.92;3.20;;;;;;;;;;5016703;28;20022;-74
2022/06/19 12:14:03;;;;;;;20.65;2.65;;;;;;;;;;5016568;28;20425;-73
2022/06/19 12:16:28;;;;;;;13.90;3.30;;;;;;;;;;5018241;28;20057;-74
2022/06/19 12:18:54;;;;;;;21.47;3.63;;;;;;;;;;5017921;28;20061;-74
2022/06/19 12:21:46;;;;;;;13.00;2.50;;;;;;;;;;5016704;28;20761;-74
2022/06/19 12:24:19;;;;;;;10.52;3.00;;;;;;;;;;5017139;28;20259;-73
2022/06/19 12:26:46;;;;;;;;;;;;;;;;;;5017752;28;20026;-74
2022/06/19 12:29:41;;;;;;;18.42;2.75;;;;;;;;;;5017034;28;20375;-75
2022/06/19 12:32:17;;;;;;;19.13;2.83;;;;;;;;;;5016318;28;20075;-73
2022/06/19 12:34:46;;;;;;;21.77;3.70;;;;;;;;;;5017133;28;20061;-73
2022/06/19 12:37:28;;;;;;;17.58;2.85;;;;;;;;;;5016597;28;20475;-73
2022/06/19 12:39:55;;;;;;;20.80;3.13;;;;;;;;;;5015438;28;20036;-74
2022/06/19 12:42:48;;;;;;;21.08;3.25;;;;;;;;;;5016171;28;20390;-73
2022/06/19 12:45:45;;;;;;;23.73;3.30;;;;;;;;;;5015758;28;20053;-74
2022/06/19 12:48:31;;;;;;;21.15;3.17;;;;;;;;;;5016339;28;20057;-74
2022/06/19 12:51:19;;;;;;;23.80;3.53;;;;;;;;;;5016538;28;20030;-74
2022/06/19 12:53:54;;;;;;;22.15;3.20;;;;;;;;;;5015362;28;20116;-74
2022/06/19 12:56:58;;;;;;;23.42;3.47;;;;;;;;;;5014491;28;20108;-74
2022/06/19 12:59:38;;;;;;;19.90;2.80;;;;;;;;;;5015723;28;20431;-74
2022/06/19 13:02:34;;;;;;;20.58;3.05;;;;;;;;;;5015519;28;20022;-74
2022/06/19 13:05:26;;;;;;;22.42;3.25;;;;;;;;;;5014724;28;20021;-74
2022/06/19 13:08:08;;;;;;;20.23;3.60;;;;;;;;;;5014657;28;20030;-74
2022/06/19 13:10:46;;;;;;;21.38;3.25;;;;;;;;;;5014648;28;20053;-75
2022/06/19 13:13:39;;;;;;;19.27;3.22;;;;;;;;;;5014643;28;20045;-73
2022/06/19 13:16:17;;;;;;;20.88;3.15;;;;;;;;;;5014515;28;20029;-75
2022/06/19 13:18:55;;;;;;;20.92;3.03;;;;;;;;;;5014512;28;20024;-74
2022/06/19 13:21:54;;;;;;;17.45;2.95;;;;;;;;;;5014942;28;20030;-73
2022/06/19 13:24:38;;;;;;;24.63;4.03;;;;;;;;;;5012615;28;20026;-73
2022/06/19 13:27:21;;;;;;;21.02;3.90;;;;;;;;;;5012825;28;20068;-74
2022/06/19 13:30:09;;;;;;;19.55;3.17;;;;;;;;;;5015148;28;20030;-74
2022/06/19 13:33:08;;;;;;;19.65;3.22;;;;;;;;;;5015189;28;20349;-72
2022/06/19 13:35:39;;;;;;;19.00;3.15;;;;;;;;;;5015124;28;20022;-74
2022/06/19 13:38:26;;;;;;;21.45;3.33;;;;;;;;;;5015374;28;20038;-75
2022/06/19 13:40:59;;;;;;;24.50;3.33;;;;;;;;;;5013585;28;20055;-74
2022/06/19 13:43:27;;;;;;;16.85;3.08;;;;;;;;;;5015332;28;20034;-73
2022/06/19 13:45:56;;;;;;;23.30;3.97;;;;;;;;;;5013800;28;20057;-73
2022/06/19 13:48:25;;;;;;;21.92;3.60;;;;;;;;;;5015253;28;20113;-73
2022/06/19 13:50:58;;;;;;;19.38;3.75;;;;;;;;;;5015146;28;20483;-73
2022/06/19 13:53:33;;;;;;;20.20;3.60;;;;;;;;;;5015306;28;20034;-74
2022/06/19 13:56:06;;;;;;;20.00;3.90;;;;;;;;;;5013407;28;20104;-73
2022/06/19 13:58:40;;;;;;;;;;;;;;;;;;5014785;28;20022;-73
2022/06/19 14:01:20;;;;;;;26.40;3.55;;;;;;;;;;5014566;28;19995;-73
2022/06/19 14:07:18;;;;;;;19.80;3.72;;;;;;;;;;5014941;28;20033;-73
2022/06/19 14:09:53;;;;;;;27.45;3.33;;;;;;;;;;5014879;28;20025;-74
2022/06/19 14:12:29;;;;;;;27.13;4.20;;;;;;;;;;5014439;28;20398;-73
2022/06/19 14:15:02;;;;;;;27.10;3.97;;;;;;;;;;5016051;28;20030;-73
2022/06/19 14:17:31;;;;;;;;;;;;;;;;;;5018725;28;20127;-74
2022/06/19 14:20:31;;;;;;;15.43;3.60;;;;;;;;;;5019046;28;19913;-73
2022/06/19 14:23:08;;;;;;;21.08;4.10;;;;;;;;;;5018487;28;20080;-74
2022/06/19 14:25:46;;;;;;;15.57;3.45;;;;;;;;;;5018943;28;20018;-73
2022/06/19 14:28:25;;;;;;;25.92;4.07;;;;;;;;;;5018226;28;20033;-74
2022/06/19 14:30:54;;;;;;;15.55;4.07;;;;;;;;;;5018391;28;20029;-75
2022/06/19 14:33:42;;;;;;;24.33;3.80;;;;;;;;;;5017660;28;20041;-74
2022/06/19 14:36:19;;;;;;;22.05;3.80;;;;;;;;;;5018306;28;20018;-75
2022/06/19 14:38:53;;;;;;;20.83;3.53;;;;;;;;;;5017611;28;20057;-73
2022/06/19 14:41:18;;;;;;;20.67;3.80;;;;;;;;;;5016738;28;20021;-74
2022/06/19 14:43:53;;;;;;;18.60;4.20;;;;;;;;;;5017840;28;20030;-72
2022/06/19 14:46:40;;;;;;;18.30;4.03;;;;;;;;;;5018231;28;20025;-74
2022/06/19 14:49:40;;;;;;;21.90;3.90;;;;;;;;;;5016814;28;20030;-75
2022/06/19 14:52:39;;;;;;;22.92;3.92;;;;;;;;;;5018038;28;20109;-75
2022/06/19 14:55:31;;;;;;;19.42;4.03;;;;;;;;;;5018048;28;20014;-75
2022/06/19 14:58:00;;;;;;;18.42;4.00;;;;;;;;;;5017668;28;20468;-75
2022/06/19 15:00:40;;;;;;;21.00;3.95;;;;;;;;;;5017803;28;20064;-73
2022/06/19 15:03:38;;;;;;;18.15;3.92;;;;;;;;;;5017278;28;20033;-73
2022/06/19 15:06:23;;;;;;;19.55;4.13;;;;;;;;;;5016159;28;20080;-74
2022/06/19 15:09:00;;;;;;;13.52;3.60;;;;;;;;;;5017875;28;20026;-74
2022/06/19 15:11:31;;;;;;;24.30;4.32;;;;;;;;;;5017458;28;20038;-73
2022/06/19 15:14:07;;;;;;;18.75;4.00;;;;;;;;;;5017778;28;20037;-73
2022/06/19 15:16:39;;;;;;;16.23;4.10;;;;;;;;;;5017848;28;20029;-73
2022/06/19 15:19:35;;;;;;;12.90;3.83;;;;;;;;;;5017931;28;20022;-72
2022/06/19 15:22:05;;;;;;;16.83;3.70;;;;;;;;;;5017764;28;20509;-74
2022/06/19 15:24:50;;;;;;;17.17;4.05;;;;;;;;;;5017247;28;20048;-75
2022/06/19 15:27:28;;;;;;;16.88;3.67;;;;;;;;;;5016857;28;20036;-74